sensor_id;sensor_type;location;lat;lon;timestamp;P1;durP1;ratioP1;P2;durP2;ratioP2
56321;SDS011;42227;6.376;-10.782;2023-11-21T00:00:22;32.22;;;15.38;;
56321;SDS011;42227;6.376;-10.782;2023-11-21T00:02:51;41.47;;;16.05;;
56321;SDS011;42227;6.376;-10.782;2023-11-21T00:05:19;29.67;;;16.23;;
56321;SDS011;42227;6.376;-10.782;2023-11-21T00:07:48;46.53;;;19.88;;
56321;SDS011;42227;6.376;-10.782;2023-11-21T00:10:16;52.40;;;21.02;;
56321;SDS011;42227;6.376;-10.782;2023-11-21T00:12:45;30.08;;;18.98;;
56321;SDS011;42227;6.376;-10.782;2023-11-21T00:15:13;32.50;;;19.42;;
56321;SDS011;42227;6.376;-10.782;2023-11-21T00:18:35;47.40;;;22.58;;
56321;SDS011;42227;6.376;-10.782;2023-11-21T00:21:06;37.15;;;20.85;;
56321;SDS011;42227;6.376;-10.782;2023-11-21T00:23:38;35.83;;;19.38;;
56321;SDS011;42227;6.376;-10.782;2023-11-21T00:26:06;30.90;;;18.83;;
56321;SDS011;42227;6.376;-10.782;2023-11-21T00:28:35;39.78;;;18.90;;
56321;SDS011;42227;6.376;-10.782;2023-11-21T00:31:04;38.47;;;19.88;;
56321;SDS011;42227;6.376;-10.782;2023-11-21T00:33:32;31.75;;;17.60;;
56321;SDS011;42227;6.376;-10.782;2023-11-21T00:36:01;34.03;;;19.10;;
56321;SDS011;42227;6.376;-10.782;2023-11-21T00:38:30;33.72;;;18.08;;
56321;SDS011;42227;6.376;-10.782;2023-11-21T00:41:00;31.00;;;16.38;;
56321;SDS011;42227;6.376;-10.782;2023-11-21T00:43:28;32.10;;;17.50;;
56321;SDS011;42227;6.376;-10.782;2023-11-21T00:45:57;31.63;;;17.35;;
56321;SDS011;42227;6.376;-10.782;2023-11-21T00:48:25;35.47;;;20.95;;
56321;SDS011;42227;6.376;-10.782;2023-11-21T00:50:55;46.20;;;20.67;;
56321;SDS011;42227;6.376;-10.782;2023-11-21T00:53:24;42.63;;;22.67;;
56321;SDS011;42227;6.376;-10.782;2023-11-21T00:55:53;60.70;;;23.00;;
56321;SDS011;42227;6.376;-10.782;2023-11-21T00:58:21;34.63;;;20.80;;
56321;SDS011;42227;6.376;-10.782;2023-11-21T01:00:51;42.67;;;22.05;;
56321;SDS011;42227;6.376;-10.782;2023-11-21T01:03:20;34.22;;;20.52;;
56321;SDS011;42227;6.376;-10.782;2023-11-21T01:05:49;38.40;;;19.17;;
56321;SDS011;42227;6.376;-10.782;2023-11-21T01:08:17;37.90;;;17.80;;
56321;SDS011;42227;6.376;-10.782;2023-11-21T01:10:46;29.55;;;16.88;;
56321;SDS011;42227;6.376;-10.782;2023-11-21T01:13:14;33.13;;;19.50;;
56321;SDS011;42227;6.376;-10.782;2023-11-21T01:15:43;42.80;;;24.13;;
56321;SDS011;42227;6.376;-10.782;2023-11-21T01:18:12;42.97;;;21.17;;
56321;SDS011;42227;6.376;-10.782;2023-11-21T01:20:41;36.78;;;21.52;;
56321;SDS011;42227;6.376;-10.782;2023-11-21T01:23:10;39.15;;;22.05;;
56321;SDS011;42227;6.376;-10.782;2023-11-21T01:25:38;37.17;;;20.17;;
56321;SDS011;42227;6.376;-10.782;2023-11-21T01:28:09;42.38;;;21.15;;
56321;SDS011;42227;6.376;-10.782;2023-11-21T01:30:37;33.15;;;19.40;;
56321;SDS011;42227;6.376;-10.782;2023-11-21T01:33:06;42.80;;;20.63;;
56321;SDS011;42227;6.376;-10.782;2023-11-21T01:35:35;38.30;;;20.77;;
56321;SDS011;42227;6.376;-10.782;2023-11-21T01:38:03;38.45;;;19.90;;
56321;SDS011;42227;6.376;-10.782;2023-11-21T01:40:31;49.00;;;21.33;;
56321;SDS011;42227;6.376;-10.782;2023-11-21T01:43:00;39.20;;;20.75;;
56321;SDS011;42227;6.376;-10.782;2023-11-21T01:45:29;36.88;;;22.42;;
56321;SDS011;42227;6.376;-10.782;2023-11-21T01:47:59;39.83;;;20.45;;
56321;SDS011;42227;6.376;-10.782;2023-11-21T01:50:30;38.70;;;22.65;;
56321;SDS011;42227;6.376;-10.782;2023-11-21T01:52:58;35.90;;;23.02;;
56321;SDS011;42227;6.376;-10.782;2023-11-21T01:55:28;44.97;;;22.05;;
56321;SDS011;42227;6.376;-10.782;2023-11-21T01:57:57;41.65;;;22.67;;
56321;SDS011;42227;6.376;-10.782;2023-11-21T02:00:26;39.08;;;23.02;;
56321;SDS011;42227;6.376;-10.782;2023-11-21T02:02:55;46.88;;;24.98;;
56321;SDS011;42227;6.376;-10.782;2023-11-21T02:05:23;43.40;;;21.95;;
56321;SDS011;42227;6.376;-10.782;2023-11-21T02:07:52;42.00;;;19.58;;
56321;SDS011;42227;6.376;-10.782;2023-11-21T02:10:20;40.55;;;20.92;;
56321;SDS011;42227;6.376;-10.782;2023-11-21T02:12:49;31.13;;;19.88;;
56321;SDS011;42227;6.376;-10.782;2023-11-21T02:15:18;41.70;;;22.20;;
56321;SDS011;42227;6.376;-10.782;2023-11-21T02:17:47;40.20;;;22.98;;
56321;SDS011;42227;6.376;-10.782;2023-11-21T02:20:17;47.95;;;20.50;;
56321;SDS011;42227;6.376;-10.782;2023-11-21T02:22:55;48.03;;;22.33;;
56321;SDS011;42227;6.376;-10.782;2023-11-21T02:25:30;43.80;;;21.63;;
56321;SDS011;42227;6.376;-10.782;2023-11-21T02:28:00;40.17;;;18.48;;
56321;SDS011;42227;6.376;-10.782;2023-11-21T02:30:30;32.50;;;18.75;;
56321;SDS011;42227;6.376;-10.782;2023-11-21T02:33:00;44.10;;;18.35;;
56321;SDS011;42227;6.376;-10.782;2023-11-21T02:35:30;35.45;;;18.17;;
56321;SDS011;42227;6.376;-10.782;2023-11-21T02:37:59;34.90;;;18.67;;
56321;SDS011;42227;6.376;-10.782;2023-11-21T02:40:28;30.55;;;17.23;;
56321;SDS011;42227;6.376;-10.782;2023-11-21T02:42:57;39.38;;;18.13;;
56321;SDS011;42227;6.376;-10.782;2023-11-21T02:45:27;33.83;;;19.75;;
56321;SDS011;42227;6.376;-10.782;2023-11-21T02:47:55;36.20;;;18.88;;
56321;SDS011;42227;6.376;-10.782;2023-11-21T02:50:25;40.25;;;19.90;;
56321;SDS011;42227;6.376;-10.782;2023-11-21T02:52:54;34.30;;;18.77;;
56321;SDS011;42227;6.376;-10.782;2023-11-21T02:55:23;39.38;;;19.00;;
56321;SDS011;42227;6.376;-10.782;2023-11-21T02:57:53;31.98;;;18.38;;
56321;SDS011;42227;6.376;-10.782;2023-11-21T03:00:21;56.00;;;19.23;;
56321;SDS011;42227;6.376;-10.782;2023-11-21T03:02:50;39.95;;;19.42;;
56321;SDS011;42227;6.376;-10.782;2023-11-21T03:05:18;32.75;;;16.88;;
56321;SDS011;42227;6.376;-10.782;2023-11-21T03:07:47;27.23;;;19.48;;
56321;SDS011;42227;6.376;-10.782;2023-11-21T03:10:16;44.60;;;19.00;;
56321;SDS011;42227;6.376;-10.782;2023-11-21T03:12:45;41.38;;;20.33;;
56321;SDS011;42227;6.376;-10.782;2023-11-21T03:15:13;44.33;;;18.95;;
56321;SDS011;42227;6.376;-10.782;2023-11-21T03:17:42;35.65;;;18.20;;
56321;SDS011;42227;6.376;-10.782;2023-11-21T03:20:11;37.08;;;18.25;;
56321;SDS011;42227;6.376;-10.782;2023-11-21T03:22:39;33.05;;;19.95;;
56321;SDS011;42227;6.376;-10.782;2023-11-21T03:25:08;34.60;;;18.27;;
56321;SDS011;42227;6.376;-10.782;2023-11-21T03:27:36;51.85;;;21.30;;
56321;SDS011;42227;6.376;-10.782;2023-11-21T03:30:05;35.03;;;19.58;;
56321;SDS011;42227;6.376;-10.782;2023-11-21T03:32:36;39.88;;;22.05;;
56321;SDS011;42227;6.376;-10.782;2023-11-21T03:35:05;21.25;;;16.38;;
56321;SDS011;42227;6.376;-10.782;2023-11-21T03:37:34;26.13;;;16.52;;
56321;SDS011;42227;6.376;-10.782;2023-11-21T03:40:02;42.33;;;18.55;;
56321;SDS011;42227;6.376;-10.782;2023-11-21T03:42:31;31.60;;;17.65;;
56321;SDS011;42227;6.376;-10.782;2023-11-21T03:45:00;34.83;;;16.48;;
56321;SDS011;42227;6.376;-10.782;2023-11-21T03:47:28;32.25;;;18.38;;
56321;SDS011;42227;6.376;-10.782;2023-11-21T03:49:58;23.75;;;14.73;;
56321;SDS011;42227;6.376;-10.782;2023-11-21T03:52:26;31.20;;;16.92;;
56321;SDS011;42227;6.376;-10.782;2023-11-21T03:54:55;27.25;;;16.08;;
56321;SDS011;42227;6.376;-10.782;2023-11-21T03:57:24;25.77;;;15.77;;
56321;SDS011;42227;6.376;-10.782;2023-11-21T03:59:52;50.28;;;18.92;;
56321;SDS011;42227;6.376;-10.782;2023-11-21T04:02:20;37.25;;;15.65;;
56321;SDS011;42227;6.376;-10.782;2023-11-21T04:04:49;30.15;;;16.52;;
56321;SDS011;42227;6.376;-10.782;2023-11-21T04:07:18;28.23;;;16.00;;
56321;SDS011;42227;6.376;-10.782;2023-11-21T04:09:46;43.15;;;16.98;;
56321;SDS011;42227;6.376;-10.782;2023-11-21T04:12:15;30.55;;;16.08;;
56321;SDS011;42227;6.376;-10.782;2023-11-21T04:14:43;30.70;;;16.80;;
56321;SDS011;42227;6.376;-10.782;2023-11-21T04:17:12;43.97;;;15.30;;
56321;SDS011;42227;6.376;-10.782;2023-11-21T04:19:42;31.15;;;17.00;;
56321;SDS011;42227;6.376;-10.782;2023-11-21T04:22:10;32.92;;;15.38;;
56321;SDS011;42227;6.376;-10.782;2023-11-21T04:24:39;40.47;;;15.23;;
56321;SDS011;42227;6.376;-10.782;2023-11-21T04:27:07;43.53;;;17.60;;
56321;SDS011;42227;6.376;-10.782;2023-11-21T04:29:36;25.92;;;15.25;;
56321;SDS011;42227;6.376;-10.782;2023-11-21T04:32:04;27.83;;;15.68;;
56321;SDS011;42227;6.376;-10.782;2023-11-21T04:34:33;27.58;;;16.65;;
56321;SDS011;42227;6.376;-10.782;2023-11-21T04:37:02;32.40;;;16.27;;
56321;SDS011;42227;6.376;-10.782;2023-11-21T04:39:30;53.30;;;17.17;;
56321;SDS011;42227;6.376;-10.782;2023-11-21T04:41:59;38.40;;;17.15;;
56321;SDS011;42227;6.376;-10.782;2023-11-21T04:44:27;17.90;;;13.27;;
56321;SDS011;42227;6.376;-10.782;2023-11-21T04:46:56;32.03;;;14.52;;
56321;SDS011;42227;6.376;-10.782;2023-11-21T04:49:24;32.97;;;16.88;;
56321;SDS011;42227;6.376;-10.782;2023-11-21T04:51:53;36.38;;;15.73;;
56321;SDS011;42227;6.376;-10.782;2023-11-21T04:54:21;25.52;;;14.50;;
56321;SDS011;42227;6.376;-10.782;2023-11-21T04:56:54;35.53;;;14.98;;
56321;SDS011;42227;6.376;-10.782;2023-11-21T04:59:23;29.17;;;16.25;;
56321;SDS011;42227;6.376;-10.782;2023-11-21T05:01:51;32.17;;;16.27;;
56321;SDS011;42227;6.376;-10.782;2023-11-21T05:04:20;21.35;;;13.20;;
56321;SDS011;42227;6.376;-10.782;2023-11-21T05:06:49;25.48;;;14.63;;
56321;SDS011;42227;6.376;-10.782;2023-11-21T05:09:17;29.65;;;16.20;;
56321;SDS011;42227;6.376;-10.782;2023-11-21T05:11:46;28.55;;;14.18;;
56321;SDS011;42227;6.376;-10.782;2023-11-21T05:14:14;39.97;;;17.25;;
56321;SDS011;42227;6.376;-10.782;2023-11-21T05:16:43;22.63;;;14.25;;
56321;SDS011;42227;6.376;-10.782;2023-11-21T05:19:11;28.45;;;13.40;;
56321;SDS011;42227;6.376;-10.782;2023-11-21T05:21:40;28.27;;;14.35;;
56321;SDS011;42227;6.376;-10.782;2023-11-21T05:24:08;30.67;;;13.45;;
56321;SDS011;42227;6.376;-10.782;2023-11-21T05:26:37;29.17;;;13.45;;
56321;SDS011;42227;6.376;-10.782;2023-11-21T05:29:05;19.65;;;13.00;;
56321;SDS011;42227;6.376;-10.782;2023-11-21T05:31:34;23.45;;;12.77;;
56321;SDS011;42227;6.376;-10.782;2023-11-21T05:34:03;21.95;;;13.77;;
56321;SDS011;42227;6.376;-10.782;2023-11-21T05:36:31;22.77;;;11.73;;
56321;SDS011;42227;6.376;-10.782;2023-11-21T05:39:00;29.55;;;13.75;;
56321;SDS011;42227;6.376;-10.782;2023-11-21T05:41:28;24.55;;;13.30;;
56321;SDS011;42227;6.376;-10.782;2023-11-21T05:43:57;29.77;;;13.73;;
56321;SDS011;42227;6.376;-10.782;2023-11-21T05:46:25;19.25;;;12.38;;
56321;SDS011;42227;6.376;-10.782;2023-11-21T05:48:54;36.45;;;14.32;;
56321;SDS011;42227;6.376;-10.782;2023-11-21T05:51:22;23.45;;;11.50;;
56321;SDS011;42227;6.376;-10.782;2023-11-21T05:53:51;23.17;;;11.35;;
56321;SDS011;42227;6.376;-10.782;2023-11-21T05:56:19;24.20;;;11.65;;
56321;SDS011;42227;6.376;-10.782;2023-11-21T05:58:48;21.73;;;10.40;;
56321;SDS011;42227;6.376;-10.782;2023-11-21T06:01:16;31.95;;;12.95;;
56321;SDS011;42227;6.376;-10.782;2023-11-21T06:03:45;19.92;;;11.85;;
56321;SDS011;42227;6.376;-10.782;2023-11-21T06:06:13;23.77;;;12.50;;
56321;SDS011;42227;6.376;-10.782;2023-11-21T06:08:42;19.60;;;11.88;;
56321;SDS011;42227;6.376;-10.782;2023-11-21T06:11:10;40.88;;;15.32;;
56321;SDS011;42227;6.376;-10.782;2023-11-21T06:13:39;27.73;;;12.85;;
56321;SDS011;42227;6.376;-10.782;2023-11-21T06:16:07;33.60;;;16.02;;
56321;SDS011;42227;6.376;-10.782;2023-11-21T06:18:36;30.38;;;15.40;;
56321;SDS011;42227;6.376;-10.782;2023-11-21T06:21:05;24.55;;;13.68;;
56321;SDS011;42227;6.376;-10.782;2023-11-21T06:23:36;29.52;;;15.82;;
56321;SDS011;42227;6.376;-10.782;2023-11-21T06:26:05;26.15;;;14.45;;
56321;SDS011;42227;6.376;-10.782;2023-11-21T06:28:34;22.90;;;13.80;;
56321;SDS011;42227;6.376;-10.782;2023-11-21T06:31:02;30.48;;;14.57;;
56321;SDS011;42227;6.376;-10.782;2023-11-21T06:33:32;33.50;;;14.85;;
56321;SDS011;42227;6.376;-10.782;2023-11-21T06:36:00;34.25;;;15.27;;
56321;SDS011;42227;6.376;-10.782;2023-11-21T06:38:29;42.00;;;15.77;;
56321;SDS011;42227;6.376;-10.782;2023-11-21T06:40:57;26.33;;;16.23;;
56321;SDS011;42227;6.376;-10.782;2023-11-21T06:43:26;42.00;;;17.08;;
56321;SDS011;42227;6.376;-10.782;2023-11-21T06:45:54;45.55;;;21.60;;
56321;SDS011;42227;6.376;-10.782;2023-11-21T06:48:23;50.55;;;31.23;;
56321;SDS011;42227;6.376;-10.782;2023-11-21T06:50:51;57.22;;;40.33;;
56321;SDS011;42227;6.376;-10.782;2023-11-21T06:53:20;60.13;;;45.97;;
56321;SDS011;42227;6.376;-10.782;2023-11-21T06:55:51;47.97;;;37.03;;
56321;SDS011;42227;6.376;-10.782;2023-11-21T06:58:20;54.92;;;29.52;;
56321;SDS011;42227;6.376;-10.782;2023-11-21T07:00:49;52.47;;;30.23;;
56321;SDS011;42227;6.376;-10.782;2023-11-21T07:05:49;73.13;;;51.60;;
56321;SDS011;42227;6.376;-10.782;2023-11-21T07:08:18;68.15;;;45.45;;
56321;SDS011;42227;6.376;-10.782;2023-11-21T07:10:46;47.15;;;34.55;;
56321;SDS011;42227;6.376;-10.782;2023-11-21T07:13:15;62.92;;;44.78;;
56321;SDS011;42227;6.376;-10.782;2023-11-21T07:15:44;48.63;;;30.92;;
56321;SDS011;42227;6.376;-10.782;2023-11-21T07:18:17;54.25;;;24.33;;
56321;SDS011;42227;6.376;-10.782;2023-11-21T07:20:45;58.47;;;21.88;;
56321;SDS011;42227;6.376;-10.782;2023-11-21T07:23:14;33.17;;;18.27;;
56321;SDS011;42227;6.376;-10.782;2023-11-21T07:25:43;40.70;;;20.85;;
56321;SDS011;42227;6.376;-10.782;2023-11-21T07:28:12;54.65;;;21.75;;
56321;SDS011;42227;6.376;-10.782;2023-11-21T07:30:40;38.63;;;18.80;;
56321;SDS011;42227;6.376;-10.782;2023-11-21T07:33:08;35.22;;;20.05;;
56321;SDS011;42227;6.376;-10.782;2023-11-21T07:35:37;33.50;;;17.55;;
56321;SDS011;42227;6.376;-10.782;2023-11-21T07:38:06;34.10;;;16.75;;
56321;SDS011;42227;6.376;-10.782;2023-11-21T07:40:34;36.08;;;15.88;;
56321;SDS011;42227;6.376;-10.782;2023-11-21T07:43:03;20.58;;;11.70;;
56321;SDS011;42227;6.376;-10.782;2023-11-21T07:45:31;17.80;;;10.73;;
56321;SDS011;42227;6.376;-10.782;2023-11-21T07:48:00;25.23;;;11.45;;
56321;SDS011;42227;6.376;-10.782;2023-11-21T07:50:29;17.67;;;10.43;;
56321;SDS011;42227;6.376;-10.782;2023-11-21T07:52:57;25.88;;;11.10;;
56321;SDS011;42227;6.376;-10.782;2023-11-21T07:55:26;18.75;;;10.82;;
56321;SDS011;42227;6.376;-10.782;2023-11-21T07:57:54;13.88;;;9.48;;
56321;SDS011;42227;6.376;-10.782;2023-11-21T08:00:23;20.75;;;10.10;;
56321;SDS011;42227;6.376;-10.782;2023-11-21T08:02:51;14.02;;;7.47;;
56321;SDS011;42227;6.376;-10.782;2023-11-21T08:05:19;19.77;;;9.07;;
56321;SDS011;42227;6.376;-10.782;2023-11-21T08:07:58;19.40;;;9.60;;
56321;SDS011;42227;6.376;-10.782;2023-11-21T08:10:27;24.00;;;9.63;;
56321;SDS011;42227;6.376;-10.782;2023-11-21T08:12:55;23.38;;;7.93;;
56321;SDS011;42227;6.376;-10.782;2023-11-21T08:15:24;12.07;;;8.32;;
56321;SDS011;42227;6.376;-10.782;2023-11-21T08:17:52;20.27;;;9.25;;
56321;SDS011;42227;6.376;-10.782;2023-11-21T08:20:29;15.82;;;9.10;;
56321;SDS011;42227;6.376;-10.782;2023-11-21T08:22:58;12.48;;;8.20;;
56321;SDS011;42227;6.376;-10.782;2023-11-21T08:25:26;18.00;;;9.25;;
56321;SDS011;42227;6.376;-10.782;2023-11-21T08:27:54;16.38;;;8.85;;
56321;SDS011;42227;6.376;-10.782;2023-11-21T08:30:23;21.90;;;8.13;;
56321;SDS011;42227;6.376;-10.782;2023-11-21T08:32:51;19.42;;;9.70;;
56321;SDS011;42227;6.376;-10.782;2023-11-21T08:35:20;23.15;;;8.43;;
56321;SDS011;42227;6.376;-10.782;2023-11-21T08:37:50;25.35;;;8.20;;
56321;SDS011;42227;6.376;-10.782;2023-11-21T08:40:19;23.95;;;8.27;;
56321;SDS011;42227;6.376;-10.782;2023-11-21T08:42:48;16.25;;;9.32;;
56321;SDS011;42227;6.376;-10.782;2023-11-21T08:45:17;18.10;;;8.93;;
56321;SDS011;42227;6.376;-10.782;2023-11-21T08:47:46;17.40;;;8.77;;
56321;SDS011;42227;6.376;-10.782;2023-11-21T08:50:14;20.60;;;9.60;;
56321;SDS011;42227;6.376;-10.782;2023-11-21T08:52:43;22.65;;;8.23;;
56321;SDS011;42227;6.376;-10.782;2023-11-21T08:57:03;17.30;;;9.00;;
56321;SDS011;42227;6.376;-10.782;2023-11-21T08:59:32;20.75;;;9.25;;
56321;SDS011;42227;6.376;-10.782;2023-11-21T09:02:00;19.17;;;8.73;;
56321;SDS011;42227;6.376;-10.782;2023-11-21T09:04:32;15.52;;;7.68;;
56321;SDS011;42227;6.376;-10.782;2023-11-21T09:07:01;11.80;;;7.45;;
56321;SDS011;42227;6.376;-10.782;2023-11-21T09:09:31;20.60;;;6.85;;
56321;SDS011;42227;6.376;-10.782;2023-11-21T09:11:59;23.85;;;7.57;;
56321;SDS011;42227;6.376;-10.782;2023-11-21T09:14:28;29.52;;;8.13;;
56321;SDS011;42227;6.376;-10.782;2023-11-21T09:16:56;17.08;;;7.82;;
56321;SDS011;42227;6.376;-10.782;2023-11-21T09:19:25;21.95;;;8.35;;
56321;SDS011;42227;6.376;-10.782;2023-11-21T09:21:53;29.10;;;9.48;;
56321;SDS011;42227;6.376;-10.782;2023-11-21T09:24:22;15.07;;;8.68;;
56321;SDS011;42227;6.376;-10.782;2023-11-21T09:26:50;25.48;;;9.52;;
56321;SDS011;42227;6.376;-10.782;2023-11-21T09:29:19;20.83;;;10.65;;
56321;SDS011;42227;6.376;-10.782;2023-11-21T09:31:47;16.00;;;8.43;;
56321;SDS011;42227;6.376;-10.782;2023-11-21T09:34:16;23.75;;;9.57;;
56321;SDS011;42227;6.376;-10.782;2023-11-21T09:36:45;20.95;;;10.05;;
56321;SDS011;42227;6.376;-10.782;2023-11-21T09:39:14;23.95;;;8.07;;
56321;SDS011;42227;6.376;-10.782;2023-11-21T09:44:35;23.30;;;8.00;;
56321;SDS011;42227;6.376;-10.782;2023-11-21T09:47:27;18.25;;;8.82;;
56321;SDS011;42227;6.376;-10.782;2023-11-21T09:49:56;22.85;;;10.23;;
56321;SDS011;42227;6.376;-10.782;2023-11-21T09:52:29;28.63;;;10.07;;
56321;SDS011;42227;6.376;-10.782;2023-11-21T09:54:59;15.63;;;7.72;;
56321;SDS011;42227;6.376;-10.782;2023-11-21T09:57:29;25.85;;;9.52;;
56321;SDS011;42227;6.376;-10.782;2023-11-21T09:59:58;20.95;;;9.35;;
56321;SDS011;42227;6.376;-10.782;2023-11-21T10:02:30;22.80;;;9.10;;
56321;SDS011;42227;6.376;-10.782;2023-11-21T10:05:02;15.00;;;7.10;;
56321;SDS011;42227;6.376;-10.782;2023-11-21T10:07:31;15.68;;;6.93;;
56321;SDS011;42227;6.376;-10.782;2023-11-21T10:10:01;21.10;;;9.23;;
56321;SDS011;42227;6.376;-10.782;2023-11-21T10:12:30;22.73;;;9.07;;
56321;SDS011;42227;6.376;-10.782;2023-11-21T10:15:00;17.23;;;7.10;;
56321;SDS011;42227;6.376;-10.782;2023-11-21T10:17:31;18.88;;;7.88;;
56321;SDS011;42227;6.376;-10.782;2023-11-21T10:22:32;19.55;;;7.95;;
56321;SDS011;42227;6.376;-10.782;2023-11-21T10:25:00;35.13;;;9.32;;
56321;SDS011;42227;6.376;-10.782;2023-11-21T10:27:29;17.73;;;6.82;;
56321;SDS011;42227;6.376;-10.782;2023-11-21T10:29:57;14.32;;;7.20;;
56321;SDS011;42227;6.376;-10.782;2023-11-21T10:32:29;23.73;;;10.70;;
56321;SDS011;42227;6.376;-10.782;2023-11-21T10:34:58;28.48;;;13.40;;
56321;SDS011;42227;6.376;-10.782;2023-11-21T10:37:27;21.27;;;8.13;;
56321;SDS011;42227;6.376;-10.782;2023-11-21T10:39:59;25.08;;;13.50;;
56321;SDS011;42227;6.376;-10.782;2023-11-21T10:42:27;18.52;;;9.95;;
56321;SDS011;42227;6.376;-10.782;2023-11-21T10:44:56;21.45;;;9.95;;
56321;SDS011;42227;6.376;-10.782;2023-11-21T10:47:24;19.13;;;7.63;;
56321;SDS011;42227;6.376;-10.782;2023-11-21T10:49:53;16.75;;;7.97;;
56321;SDS011;42227;6.376;-10.782;2023-11-21T10:52:22;16.45;;;8.02;;
56321;SDS011;42227;6.376;-10.782;2023-11-21T10:54:55;12.68;;;7.40;;
56321;SDS011;42227;6.376;-10.782;2023-11-21T10:57:33;20.17;;;7.97;;
56321;SDS011;42227;6.376;-10.782;2023-11-21T11:00:01;18.48;;;9.63;;
56321;SDS011;42227;6.376;-10.782;2023-11-21T11:02:31;23.55;;;9.10;;
56321;SDS011;42227;6.376;-10.782;2023-11-21T11:05:00;22.05;;;9.93;;
56321;SDS011;42227;6.376;-10.782;2023-11-21T11:07:28;26.10;;;7.93;;
56321;SDS011;42227;6.376;-10.782;2023-11-21T11:09:58;17.95;;;8.65;;
56321;SDS011;42227;6.376;-10.782;2023-11-21T11:12:27;20.08;;;7.47;;
56321;SDS011;42227;6.376;-10.782;2023-11-21T11:14:55;13.25;;;6.90;;
56321;SDS011;42227;6.376;-10.782;2023-11-21T11:17:25;21.48;;;7.63;;
56321;SDS011;42227;6.376;-10.782;2023-11-21T11:19:54;15.80;;;7.78;;
56321;SDS011;42227;6.376;-10.782;2023-11-21T11:33:22;14.82;;;7.80;;
56321;SDS011;42227;6.376;-10.782;2023-11-21T11:36:12;13.70;;;8.23;;
56321;SDS011;42227;6.376;-10.782;2023-11-21T11:39:26;13.07;;;7.97;;
56321;SDS011;42227;6.376;-10.782;2023-11-21T11:42:03;22.20;;;7.43;;
56321;SDS011;42227;6.376;-10.782;2023-11-21T11:47:27;19.10;;;7.93;;
56321;SDS011;42227;6.376;-10.782;2023-11-21T11:52:33;16.15;;;8.70;;
56321;SDS011;42227;6.376;-10.782;2023-11-21T11:55:03;18.00;;;7.93;;
56321;SDS011;42227;6.376;-10.782;2023-11-21T11:57:33;16.40;;;8.27;;
56321;SDS011;42227;6.376;-10.782;2023-11-21T12:00:12;15.98;;;8.23;;
56321;SDS011;42227;6.376;-10.782;2023-11-21T12:02:46;14.93;;;7.63;;
56321;SDS011;42227;6.376;-10.782;2023-11-21T12:05:16;17.17;;;8.75;;
56321;SDS011;42227;6.376;-10.782;2023-11-21T12:10:25;17.45;;;8.63;;
56321;SDS011;42227;6.376;-10.782;2023-11-21T12:12:56;21.27;;;9.00;;
56321;SDS011;42227;6.376;-10.782;2023-11-21T12:15:26;16.55;;;7.72;;
56321;SDS011;42227;6.376;-10.782;2023-11-21T12:17:55;23.20;;;8.02;;
56321;SDS011;42227;6.376;-10.782;2023-11-21T12:20:24;12.65;;;7.22;;
56321;SDS011;42227;6.376;-10.782;2023-11-21T12:25:23;20.73;;;7.97;;
56321;SDS011;42227;6.376;-10.782;2023-11-21T12:27:56;18.95;;;9.40;;
56321;SDS011;42227;6.376;-10.782;2023-11-21T12:30:26;18.52;;;7.05;;
56321;SDS011;42227;6.376;-10.782;2023-11-21T12:32:57;21.25;;;8.82;;
56321;SDS011;42227;6.376;-10.782;2023-11-21T12:35:27;26.90;;;8.60;;
56321;SDS011;42227;6.376;-10.782;2023-11-21T12:37:59;17.67;;;7.60;;
56321;SDS011;42227;6.376;-10.782;2023-11-21T12:40:28;21.10;;;8.70;;
56321;SDS011;42227;6.376;-10.782;2023-11-21T12:42:57;16.75;;;7.72;;
56321;SDS011;42227;6.376;-10.782;2023-11-21T12:45:27;19.70;;;7.93;;
56321;SDS011;42227;6.376;-10.782;2023-11-21T12:47:57;22.52;;;8.27;;
56321;SDS011;42227;6.376;-10.782;2023-11-21T12:52:58;17.35;;;7.57;;
56321;SDS011;42227;6.376;-10.782;2023-11-21T12:55:38;18.48;;;8.10;;
56321;SDS011;42227;6.376;-10.782;2023-11-21T12:58:07;16.65;;;7.60;;
56321;SDS011;42227;6.376;-10.782;2023-11-21T13:00:39;17.50;;;7.57;;
56321;SDS011;42227;6.376;-10.782;2023-11-21T13:03:11;20.58;;;7.38;;
56321;SDS011;42227;6.376;-10.782;2023-11-21T13:05:41;11.45;;;5.60;;
56321;SDS011;42227;6.376;-10.782;2023-11-21T13:08:12;30.10;;;8.25;;
56321;SDS011;42227;6.376;-10.782;2023-11-21T13:10:43;13.82;;;7.40;;
56321;SDS011;42227;6.376;-10.782;2023-11-21T13:13:12;13.43;;;6.93;;
56321;SDS011;42227;6.376;-10.782;2023-11-21T13:15:46;17.67;;;7.10;;
56321;SDS011;42227;6.376;-10.782;2023-11-21T13:18:26;17.73;;;6.80;;
56321;SDS011;42227;6.376;-10.782;2023-11-21T13:20:57;17.05;;;7.20;;
56321;SDS011;42227;6.376;-10.782;2023-11-21T13:23:26;16.08;;;7.32;;
56321;SDS011;42227;6.376;-10.782;2023-11-21T13:25:55;18.25;;;6.63;;
56321;SDS011;42227;6.376;-10.782;2023-11-21T13:28:33;23.73;;;7.65;;
56321;SDS011;42227;6.376;-10.782;2023-11-21T13:31:03;26.95;;;9.25;;
56321;SDS011;42227;6.376;-10.782;2023-11-21T13:33:33;31.95;;;7.82;;
56321;SDS011;42227;6.376;-10.782;2023-11-21T13:36:01;31.40;;;10.57;;
56321;SDS011;42227;6.376;-10.782;2023-11-21T13:38:30;17.02;;;6.65;;
56321;SDS011;42227;6.376;-10.782;2023-11-21T13:40:59;29.13;;;8.32;;
56321;SDS011;42227;6.376;-10.782;2023-11-21T13:43:27;20.33;;;9.90;;
56321;SDS011;42227;6.376;-10.782;2023-11-21T13:45:56;19.23;;;9.30;;
56321;SDS011;42227;6.376;-10.782;2023-11-21T13:48:24;16.75;;;8.25;;
56321;SDS011;42227;6.376;-10.782;2023-11-21T13:50:53;12.60;;;8.25;;
56321;SDS011;42227;6.376;-10.782;2023-11-21T13:53:22;24.73;;;7.35;;
56321;SDS011;42227;6.376;-10.782;2023-11-21T13:55:53;16.50;;;7.00;;
56321;SDS011;42227;6.376;-10.782;2023-11-21T13:58:22;25.50;;;7.18;;
56321;SDS011;42227;6.376;-10.782;2023-11-21T14:00:51;21.92;;;8.10;;
56321;SDS011;42227;6.376;-10.782;2023-11-21T14:03:19;20.77;;;8.38;;
56321;SDS011;42227;6.376;-10.782;2023-11-21T14:05:48;17.80;;;8.43;;
56321;SDS011;42227;6.376;-10.782;2023-11-21T14:08:18;23.98;;;7.68;;
56321;SDS011;42227;6.376;-10.782;2023-11-21T14:11:55;23.30;;;9.10;;
56321;SDS011;42227;6.376;-10.782;2023-11-21T14:14:26;29.95;;;8.50;;
56321;SDS011;42227;6.376;-10.782;2023-11-21T14:16:55;19.58;;;9.25;;
56321;SDS011;42227;6.376;-10.782;2023-11-21T14:19:23;38.58;;;9.63;;
56321;SDS011;42227;6.376;-10.782;2023-11-21T16:55:07;27.02;;;8.27;;
56321;SDS011;42227;6.376;-10.782;2023-11-21T16:57:36;18.75;;;8.25;;
56321;SDS011;42227;6.376;-10.782;2023-11-21T17:00:05;26.40;;;9.13;;
56321;SDS011;42227;6.376;-10.782;2023-11-21T17:02:33;36.45;;;9.25;;
56321;SDS011;42227;6.376;-10.782;2023-11-21T17:05:02;23.55;;;7.03;;
56321;SDS011;42227;6.376;-10.782;2023-11-21T17:07:31;28.10;;;9.23;;
56321;SDS011;42227;6.376;-10.782;2023-11-21T17:10:00;29.05;;;10.32;;
56321;SDS011;42227;6.376;-10.782;2023-11-21T17:12:28;32.88;;;10.60;;
56321;SDS011;42227;6.376;-10.782;2023-11-21T17:14:56;22.63;;;9.05;;
56321;SDS011;42227;6.376;-10.782;2023-11-21T17:17:25;19.95;;;9.63;;
56321;SDS011;42227;6.376;-10.782;2023-11-21T17:19:53;38.92;;;9.93;;
56321;SDS011;42227;6.376;-10.782;2023-11-21T17:22:22;17.65;;;9.05;;
56321;SDS011;42227;6.376;-10.782;2023-11-21T17:24:50;25.80;;;8.65;;
56321;SDS011;42227;6.376;-10.782;2023-11-21T17:27:19;34.70;;;12.55;;
56321;SDS011;42227;6.376;-10.782;2023-11-21T17:29:47;24.10;;;10.45;;
56321;SDS011;42227;6.376;-10.782;2023-11-21T17:32:18;30.92;;;8.63;;
56321;SDS011;42227;6.376;-10.782;2023-11-21T17:34:47;19.10;;;9.55;;